sensor_id;sensor_type;location;lat;lon;timestamp;pressure;altitude;pressure_sealevel;temperature;humidity
7918;BME280;4004;42.624;23.386;2022-07-22T00:01:46;94249.56;;;20.83;63.22
7918;BME280;4004;42.624;23.386;2022-07-22T00:04:13;94234.66;;;20.64;64.50
7918;BME280;4004;42.624;23.386;2022-07-22T00:06:39;94234.41;;;20.55;64.49
7918;BME280;4004;42.624;23.386;2022-07-22T00:09:06;94235.25;;;20.28;66.18
7918;BME280;4004;42.624;23.386;2022-07-22T00:11:34;94241.19;;;20.23;66.31
7918;BME280;4004;42.624;23.386;2022-07-22T00:14:01;94239.38;;;20.13;66.92
7918;BME280;4004;42.624;23.386;2022-07-22T00:16:28;94236.25;;;20.15;67.31
7918;BME280;4004;42.624;23.386;2022-07-22T00:18:55;94247.72;;;20.02;68.32
7918;BME280;4004;42.624;23.386;2022-07-22T00:21:21;94244.78;;;19.90;69.53
7918;BME280;4004;42.624;23.386;2022-07-22T00:23:48;94253.25;;;19.68;71.17
7918;BME280;4004;42.624;23.386;2022-07-22T00:26:15;94254.56;;;19.56;72.40
7918;BME280;4004;42.624;23.386;2022-07-22T00:28:43;94251.16;;;19.49;72.85
7918;BME280;4004;42.624;23.386;2022-07-22T00:31:10;94251.69;;;19.36;73.81
7918;BME280;4004;42.624;23.386;2022-07-22T00:33:39;94252.56;;;19.30;74.94
7918;BME280;4004;42.624;23.386;2022-07-22T00:36:07;94249.97;;;19.19;75.94
7918;BME280;4004;42.624;23.386;2022-07-22T00:38:34;94258.28;;;19.04;76.94
7918;BME280;4004;42.624;23.386;2022-07-22T00:41:01;94257.13;;;19.05;77.41
7918;BME280;4004;42.624;23.386;2022-07-22T00:43:28;94247.69;;;19.14;77.10
7918;BME280;4004;42.624;23.386;2022-07-22T00:46:15;94246.59;;;19.08;77.59
7918;BME280;4004;42.624;23.386;2022-07-22T00:48:42;94249.66;;;19.10;77.76
7918;BME280;4004;42.624;23.386;2022-07-22T00:51:09;94245.88;;;19.03;78.14
7918;BME280;4004;42.624;23.386;2022-07-22T00:53:36;94241.06;;;19.15;77.65
7918;BME280;4004;42.624;23.386;2022-07-22T00:56:03;94245.00;;;19.10;77.91
7918;BME280;4004;42.624;23.386;2022-07-22T00:58:30;94246.53;;;19.11;77.88
7918;BME280;4004;42.624;23.386;2022-07-22T01:00:57;94247.31;;;19.12;78.39
7918;BME280;4004;42.624;23.386;2022-07-22T01:03:25;94256.38;;;19.01;79.43
7918;BME280;4004;42.624;23.386;2022-07-22T01:05:52;94252.94;;;18.94;80.23
7918;BME280;4004;42.624;23.386;2022-07-22T01:08:19;94241.31;;;18.90;80.79
7918;BME280;4004;42.624;23.386;2022-07-22T01:10:46;94244.00;;;18.93;81.04
7918;BME280;4004;42.624;23.386;2022-07-22T01:13:12;94242.41;;;18.99;80.85
7918;BME280;4004;42.624;23.386;2022-07-22T01:15:39;94248.53;;;19.07;79.96
7918;BME280;4004;42.624;23.386;2022-07-22T01:18:06;94243.91;;;19.04;79.82
7918;BME280;4004;42.624;23.386;2022-07-22T01:20:35;94245.44;;;19.05;79.92
7918;BME280;4004;42.624;23.386;2022-07-22T01:23:02;94248.13;;;19.09;79.95
7918;BME280;4004;42.624;23.386;2022-07-22T01:25:29;94245.78;;;19.11;79.76
7918;BME280;4004;42.624;23.386;2022-07-22T01:27:55;94248.50;;;19.11;79.41
7918;BME280;4004;42.624;23.386;2022-07-22T01:30:22;94251.53;;;19.16;78.80
7918;BME280;4004;42.624;23.386;2022-07-22T01:32:49;94249.59;;;19.17;78.75
7918;BME280;4004;42.624;23.386;2022-07-22T01:35:15;94244.53;;;19.19;77.97
7918;BME280;4004;42.624;23.386;2022-07-22T01:37:44;94240.63;;;19.16;78.42
7918;BME280;4004;42.624;23.386;2022-07-22T01:40:11;94230.19;;;19.11;78.28
7918;BME280;4004;42.624;23.386;2022-07-22T01:42:38;94235.19;;;19.16;77.80
7918;BME280;4004;42.624;23.386;2022-07-22T01:45:05;94240.34;;;19.07;77.93
7918;BME280;4004;42.624;23.386;2022-07-22T01:47:32;94239.59;;;19.07;78.17
7918;BME280;4004;42.624;23.386;2022-07-22T01:49:59;94242.75;;;19.01;78.64
7918;BME280;4004;42.624;23.386;2022-07-22T01:52:26;94238.09;;;19.02;78.89
7918;BME280;4004;42.624;23.386;2022-07-22T01:54:54;94246.34;;;18.95;79.03
7918;BME280;4004;42.624;23.386;2022-07-22T01:57:20;94245.13;;;18.99;78.77
7918;BME280;4004;42.624;23.386;2022-07-22T01:59:47;94248.31;;;18.94;78.79
7918;BME280;4004;42.624;23.386;2022-07-22T02:02:14;94243.66;;;18.91;78.86
7918;BME280;4004;42.624;23.386;2022-07-22T02:04:40;94244.41;;;18.92;78.70
7918;BME280;4004;42.624;23.386;2022-07-22T02:07:07;94242.91;;;18.87;79.35
7918;BME280;4004;42.624;23.386;2022-07-22T02:09:34;94244.88;;;18.83;80.64
7918;BME280;4004;42.624;23.386;2022-07-22T02:12:02;94247.28;;;18.81;80.45
7918;BME280;4004;42.624;23.386;2022-07-22T02:14:29;94252.75;;;18.77;80.38
7918;BME280;4004;42.624;23.386;2022-07-22T02:16:56;94249.22;;;18.77;79.83
7918;BME280;4004;42.624;23.386;2022-07-22T02:19:22;94253.81;;;18.87;78.93
7918;BME280;4004;42.624;23.386;2022-07-22T02:21:49;94259.31;;;18.83;79.21
7918;BME280;4004;42.624;23.386;2022-07-22T02:24:16;94254.69;;;18.73;80.08
7918;BME280;4004;42.624;23.386;2022-07-22T02:26:42;94260.59;;;18.68;80.64
7918;BME280;4004;42.624;23.386;2022-07-22T02:29:10;94262.13;;;18.69;80.86
7918;BME280;4004;42.624;23.386;2022-07-22T02:31:37;94260.97;;;18.67;81.62
7918;BME280;4004;42.624;23.386;2022-07-22T02:34:04;94260.31;;;18.52;82.86
7918;BME280;4004;42.624;23.386;2022-07-22T02:36:31;94242.53;;;18.43;83.36
7918;BME280;4004;42.624;23.386;2022-07-22T02:38:58;94261.91;;;18.49;84.20
7918;BME280;4004;42.624;23.386;2022-07-22T02:41:24;94222.50;;;18.23;84.36
7918;BME280;4004;42.624;23.386;2022-07-22T02:43:51;94255.41;;;18.36;84.28
7918;BME280;4004;42.624;23.386;2022-07-22T02:46:20;94260.78;;;18.43;83.38
7918;BME280;4004;42.624;23.386;2022-07-22T02:48:47;94256.91;;;18.44;82.16
7918;BME280;4004;42.624;23.386;2022-07-22T02:51:13;94256.44;;;18.53;81.45
7918;BME280;4004;42.624;23.386;2022-07-22T02:53:40;94261.06;;;18.56;80.36
7918;BME280;4004;42.624;23.386;2022-07-22T02:56:07;94263.41;;;18.57;80.38
7918;BME280;4004;42.624;23.386;2022-07-22T02:58:34;94261.13;;;18.52;79.59
7918;BME280;4004;42.624;23.386;2022-07-22T03:01:00;94265.38;;;18.53;79.58
7918;BME280;4004;42.624;23.386;2022-07-22T03:03:28;94266.50;;;18.56;79.60
7918;BME280;4004;42.624;23.386;2022-07-22T03:05:55;94258.72;;;18.58;79.53
7918;BME280;4004;42.624;23.386;2022-07-22T03:08:23;94258.78;;;18.54;79.96
7918;BME280;4004;42.624;23.386;2022-07-22T03:10:50;94259.19;;;18.49;79.90
7918;BME280;4004;42.624;23.386;2022-07-22T03:13:17;94266.59;;;18.45;79.77
7918;BME280;4004;42.624;23.386;2022-07-22T03:15:44;94255.72;;;18.45;79.90
7918;BME280;4004;42.624;23.386;2022-07-22T03:18:10;94255.72;;;18.45;80.34
7918;BME280;4004;42.624;23.386;2022-07-22T03:20:39;94260.41;;;18.44;80.87
7918;BME280;4004;42.624;23.386;2022-07-22T03:23:06;94258.03;;;18.47;80.72
7918;BME280;4004;42.624;23.386;2022-07-22T03:25:33;94260.50;;;18.75;79.75
7918;BME280;4004;42.624;23.386;2022-07-22T03:28:00;94256.03;;;18.99;76.67
7918;BME280;4004;42.624;23.386;2022-07-22T03:30:26;94257.69;;;19.24;75.24
7918;BME280;4004;42.624;23.386;2022-07-22T03:32:53;94256.97;;;19.51;73.87
7918;BME280;4004;42.624;23.386;2022-07-22T03:35:20;94263.63;;;20.07;70.19
7918;BME280;4004;42.624;23.386;2022-07-22T03:37:48;94264.34;;;20.39;68.27
7918;BME280;4004;42.624;23.386;2022-07-22T03:40:15;94267.53;;;21.24;63.71
7918;BME280;4004;42.624;23.386;2022-07-22T03:42:42;94271.41;;;21.67;60.16
7918;BME280;4004;42.624;23.386;2022-07-22T03:45:09;94272.06;;;22.27;57.27
7918;BME280;4004;42.624;23.386;2022-07-22T03:47:36;94262.66;;;22.77;55.17
7918;BME280;4004;42.624;23.386;2022-07-22T03:50:03;94279.97;;;23.49;52.33
7918;BME280;4004;42.624;23.386;2022-07-22T03:52:30;94285.13;;;23.89;50.95
7918;BME280;4004;42.624;23.386;2022-07-22T03:54:58;94279.88;;;24.72;48.37
7918;BME280;4004;42.624;23.386;2022-07-22T03:57:25;94283.28;;;25.23;46.65
7918;BME280;4004;42.624;23.386;2022-07-22T03:59:53;94290.13;;;25.41;45.71
7918;BME280;4004;42.624;23.386;2022-07-22T04:02:20;94291.41;;;25.71;45.29
7918;BME280;4004;42.624;23.386;2022-07-22T04:04:46;94287.53;;;25.81;44.59
7918;BME280;4004;42.624;23.386;2022-07-22T04:07:13;94291.19;;;26.10;44.41
7918;BME280;4004;42.624;23.386;2022-07-22T04:09:40;94291.66;;;26.89;42.26
7918;BME280;4004;42.624;23.386;2022-07-22T04:12:08;94295.38;;;27.87;40.75
7918;BME280;4004;42.624;23.386;2022-07-22T04:14:35;94298.75;;;28.43;39.17
7918;BME280;4004;42.624;23.386;2022-07-22T04:17:01;94299.13;;;28.69;39.03
7918;BME280;4004;42.624;23.386;2022-07-22T04:19:28;94295.00;;;29.22;37.75
7918;BME280;4004;42.624;23.386;2022-07-22T04:21:55;94310.72;;;30.24;36.16
7918;BME280;4004;42.624;23.386;2022-07-22T04:24:21;94304.31;;;30.97;34.98
7918;BME280;4004;42.624;23.386;2022-07-22T04:26:48;94311.81;;;31.12;34.30
7918;BME280;4004;42.624;23.386;2022-07-22T04:29:16;94318.22;;;31.38;34.08
7918;BME280;4004;42.624;23.386;2022-07-22T04:31:43;94313.84;;;31.73;33.46
7918;BME280;4004;42.624;23.386;2022-07-22T04:34:10;94318.34;;;31.70;33.84
7918;BME280;4004;42.624;23.386;2022-07-22T04:36:36;94317.59;;;31.70;33.80
7918;BME280;4004;42.624;23.386;2022-07-22T04:39:03;94329.59;;;31.00;34.97
7918;BME280;4004;42.624;23.386;2022-07-22T04:41:31;94337.66;;;30.83;35.30
7918;BME280;4004;42.624;23.386;2022-07-22T04:43:57;94325.13;;;30.87;35.52
7918;BME280;4004;42.624;23.386;2022-07-22T04:46:25;94330.78;;;30.63;35.87
7918;BME280;4004;42.624;23.386;2022-07-22T04:48:53;94334.34;;;30.99;35.77
7918;BME280;4004;42.624;23.386;2022-07-22T04:51:19;94328.06;;;31.19;35.05
7918;BME280;4004;42.624;23.386;2022-07-22T04:53:46;94343.06;;;31.07;35.26
7918;BME280;4004;42.624;23.386;2022-07-22T04:56:13;94340.44;;;31.18;35.29
7918;BME280;4004;42.624;23.386;2022-07-22T04:58:39;94341.94;;;31.19;35.47
7918;BME280;4004;42.624;23.386;2022-07-22T05:01:06;94340.56;;;31.44;34.57
7918;BME280;4004;42.624;23.386;2022-07-22T05:03:37;94343.19;;;30.97;34.40
7918;BME280;4004;42.624;23.386;2022-07-22T05:06:04;94340.09;;;31.31;34.69
7918;BME280;4004;42.624;23.386;2022-07-22T05:08:30;94340.13;;;31.51;34.66
7918;BME280;4004;42.624;23.386;2022-07-22T05:10:57;94344.75;;;31.39;34.83
7918;BME280;4004;42.624;23.386;2022-07-22T05:13:24;94342.03;;;31.66;34.68
7918;BME280;4004;42.624;23.386;2022-07-22T05:15:51;94336.50;;;31.66;34.50
7918;BME280;4004;42.624;23.386;2022-07-22T05:18:17;94348.28;;;32.28;33.71
7918;BME280;4004;42.624;23.386;2022-07-22T05:20:46;94340.97;;;32.56;33.49
7918;BME280;4004;42.624;23.386;2022-07-22T05:23:12;94339.41;;;33.24;32.31
7918;BME280;4004;42.624;23.386;2022-07-22T05:25:39;94351.53;;;33.70;31.67
7918;BME280;4004;42.624;23.386;2022-07-22T05:28:06;94356.94;;;33.91;30.92
7918;BME280;4004;42.624;23.386;2022-07-22T05:30:32;94359.75;;;34.02;31.31
7918;BME280;4004;42.624;23.386;2022-07-22T05:32:59;94367.44;;;34.35;30.79
7918;BME280;4004;42.624;23.386;2022-07-22T05:35:26;94364.88;;;34.20;31.25
7918;BME280;4004;42.624;23.386;2022-07-22T05:37:54;94363.16;;;34.68;30.75
7918;BME280;4004;42.624;23.386;2022-07-22T05:40:21;94370.25;;;35.08;29.93
7918;BME280;4004;42.624;23.386;2022-07-22T05:42:48;94366.00;;;35.77;29.17
7918;BME280;4004;42.624;23.386;2022-07-22T05:45:15;94365.84;;;36.52;27.78
7918;BME280;4004;42.624;23.386;2022-07-22T05:47:41;94363.28;;;36.60;27.88
7918;BME280;4004;42.624;23.386;2022-07-22T05:50:08;94364.53;;;36.59;27.82
7918;BME280;4004;42.624;23.386;2022-07-22T05:52:36;94359.16;;;36.67;27.70
7918;BME280;4004;42.624;23.386;2022-07-22T05:55:05;94358.22;;;36.89;27.31
7918;BME280;4004;42.624;23.386;2022-07-22T05:57:32;94364.91;;;37.35;27.16
7918;BME280;4004;42.624;23.386;2022-07-22T05:59:59;94362.94;;;38.17;26.05
7918;BME280;4004;42.624;23.386;2022-07-22T06:02:26;94365.31;;;38.64;25.33
7918;BME280;4004;42.624;23.386;2022-07-22T06:04:54;94367.63;;;38.98;24.86
7918;BME280;4004;42.624;23.386;2022-07-22T06:07:20;94373.25;;;39.11;24.69
7918;BME280;4004;42.624;23.386;2022-07-22T06:09:47;94376.53;;;39.29;24.33
7918;BME280;4004;42.624;23.386;2022-07-22T06:12:15;94369.69;;;39.37;24.43
7918;BME280;4004;42.624;23.386;2022-07-22T06:14:42;94377.34;;;39.10;24.43
7918;BME280;4004;42.624;23.386;2022-07-22T06:17:09;94357.06;;;38.53;25.04
7918;BME280;4004;42.624;23.386;2022-07-22T06:19:36;94368.25;;;38.21;25.54
7918;BME280;4004;42.624;23.386;2022-07-22T06:22:02;94371.91;;;38.15;25.95
7918;BME280;4004;42.624;23.386;2022-07-22T06:24:29;94371.09;;;38.53;25.33
7918;BME280;4004;42.624;23.386;2022-07-22T06:26:56;94373.13;;;38.71;25.32
7918;BME280;4004;42.624;23.386;2022-07-22T06:29:24;94366.53;;;38.69;25.45
7918;BME280;4004;42.624;23.386;2022-07-22T06:31:50;94363.88;;;38.90;24.83
7918;BME280;4004;42.624;23.386;2022-07-22T06:34:17;94366.53;;;39.01;24.48
7918;BME280;4004;42.624;23.386;2022-07-22T06:36:44;94370.34;;;38.71;24.76
7918;BME280;4004;42.624;23.386;2022-07-22T06:39:10;94368.31;;;38.34;24.65
7918;BME280;4004;42.624;23.386;2022-07-22T06:41:37;94371.09;;;37.77;24.80
7918;BME280;4004;42.624;23.386;2022-07-22T06:44:04;94368.88;;;37.21;25.55
7918;BME280;4004;42.624;23.386;2022-07-22T06:46:32;94362.63;;;36.43;26.63
7918;BME280;4004;42.624;23.386;2022-07-22T06:48:59;94365.94;;;36.00;27.04
7918;BME280;4004;42.624;23.386;2022-07-22T06:51:26;94366.69;;;35.25;27.47
7918;BME280;4004;42.624;23.386;2022-07-22T06:53:52;94359.78;;;35.43;27.46
7918;BME280;4004;42.624;23.386;2022-07-22T06:56:19;94360.41;;;35.77;27.66
7918;BME280;4004;42.624;23.386;2022-07-22T06:58:46;94374.06;;;35.98;27.21
7918;BME280;4004;42.624;23.386;2022-07-22T07:01:13;94364.19;;;35.91;27.58
7918;BME280;4004;42.624;23.386;2022-07-22T07:03:41;94365.31;;;35.60;27.34
7918;BME280;4004;42.624;23.386;2022-07-22T07:06:08;94366.63;;;35.47;27.09
7918;BME280;4004;42.624;23.386;2022-07-22T07:08:36;94368.97;;;34.93;27.53
7918;BME280;4004;42.624;23.386;2022-07-22T07:11:03;94368.50;;;34.66;28.52
7918;BME280;4004;42.624;23.386;2022-07-22T07:13:30;94381.38;;;35.37;27.68
7918;BME280;4004;42.624;23.386;2022-07-22T07:15:57;94367.31;;;35.70;27.06
7918;BME280;4004;42.624;23.386;2022-07-22T07:18:24;94365.53;;;35.73;27.15
7918;BME280;4004;42.624;23.386;2022-07-22T07:20:52;94365.13;;;36.05;26.54
7918;BME280;4004;42.624;23.386;2022-07-22T07:23:19;94368.53;;;35.86;26.34
7918;BME280;4004;42.624;23.386;2022-07-22T07:25:45;94369.38;;;36.23;26.40
7918;BME280;4004;42.624;23.386;2022-07-22T07:28:12;94374.78;;;36.51;26.00
7918;BME280;4004;42.624;23.386;2022-07-22T07:30:39;94367.03;;;36.68;25.42
7918;BME280;4004;42.624;23.386;2022-07-22T07:33:06;94379.34;;;36.54;25.30
7918;BME280;4004;42.624;23.386;2022-07-22T07:35:32;94368.03;;;35.82;26.19
7918;BME280;4004;42.624;23.386;2022-07-22T07:38:01;94366.69;;;35.95;26.30
7918;BME280;4004;42.624;23.386;2022-07-22T07:40:27;94359.25;;;36.14;26.31
7918;BME280;4004;42.624;23.386;2022-07-22T07:42:54;94366.41;;;36.45;25.78
7918;BME280;4004;42.624;23.386;2022-07-22T07:45:21;94376.16;;;36.75;25.65
7918;BME280;4004;42.624;23.386;2022-07-22T07:47:47;94370.44;;;36.86;25.68
7918;BME280;4004;42.624;23.386;2022-07-22T07:50:14;94367.88;;;36.88;25.07
7918;BME280;4004;42.624;23.386;2022-07-22T07:52:42;94373.22;;;36.91;24.75
7918;BME280;4004;42.624;23.386;2022-07-22T07:55:11;94366.03;;;36.96;24.68
7918;BME280;4004;42.624;23.386;2022-07-22T07:57:38;94368.38;;;36.92;24.41
7918;BME280;4004;42.624;23.386;2022-07-22T08:00:09;94368.38;;;36.92;24.19
7918;BME280;4004;42.624;23.386;2022-07-22T08:02:36;94371.56;;;37.02;24.39
7918;BME280;4004;42.624;23.386;2022-07-22T08:05:04;94379.28;;;36.96;23.96
7918;BME280;4004;42.624;23.386;2022-07-22T08:07:31;94373.59;;;36.77;24.15
7918;BME280;4004;42.624;23.386;2022-07-22T08:09:57;94366.66;;;36.47;23.67
7918;BME280;4004;42.624;23.386;2022-07-22T08:12:25;94374.63;;;36.38;23.37
7918;BME280;4004;42.624;23.386;2022-07-22T08:14:52;94368.53;;;36.34;24.04
7918;BME280;4004;42.624;23.386;2022-07-22T08:17:19;94367.78;;;36.33;23.98
7918;BME280;4004;42.624;23.386;2022-07-22T08:19:45;94366.34;;;36.21;25.06
7918;BME280;4004;42.624;23.386;2022-07-22T08:22:12;94369.88;;;36.27;24.86
7918;BME280;4004;42.624;23.386;2022-07-22T08:24:39;94366.25;;;36.32;23.63
7918;BME280;4004;42.624;23.386;2022-07-22T08:27:06;94367.41;;;36.12;24.06
7918;BME280;4004;42.624;23.386;2022-07-22T08:29:34;94377.31;;;36.07;24.16
7918;BME280;4004;42.624;23.386;2022-07-22T08:32:01;94378.94;;;35.86;24.39
7918;BME280;4004;42.624;23.386;2022-07-22T08:34:27;94379.78;;;35.64;24.13
7918;BME280;4004;42.624;23.386;2022-07-22T08:36:54;94379.28;;;35.60;24.57
7918;BME280;4004;42.624;23.386;2022-07-22T08:39:21;94372.91;;;35.70;24.72
7918;BME280;4004;42.624;23.386;2022-07-22T08:41:50;94376.53;;;35.37;24.81
7918;BME280;4004;42.624;23.386;2022-07-22T08:44:17;94378.13;;;35.04;25.63
7918;BME280;4004;42.624;23.386;2022-07-22T08:46:46;94371.81;;;35.15;25.72
7918;BME280;4004;42.624;23.386;2022-07-22T08:49:13;94376.59;;;35.20;25.81
7918;BME280;4004;42.624;23.386;2022-07-22T08:51:40;94370.25;;;35.20;25.35
7918;BME280;4004;42.624;23.386;2022-07-22T08:54:07;94372.53;;;34.99;25.42
7918;BME280;4004;42.624;23.386;2022-07-22T08:56:34;94369.53;;;34.69;25.51
7918;BME280;4004;42.624;23.386;2022-07-22T08:59:03;94373.28;;;34.54;26.19
7918;BME280;4004;42.624;23.386;2022-07-22T09:01:30;94374.56;;;34.42;26.18
7918;BME280;4004;42.624;23.386;2022-07-22T09:03:58;94384.09;;;34.07;26.63
7918;BME280;4004;42.624;23.386;2022-07-22T09:06:27;94377.41;;;33.71;26.56
7918;BME280;4004;42.624;23.386;2022-07-22T09:09:00;94370.66;;;33.45;27.23
7918;BME280;4004;42.624;23.386;2022-07-22T09:11:28;94370.88;;;33.36;27.44
7918;BME280;4004;42.624;23.386;2022-07-22T09:13:56;94372.50;;;33.11;27.78
7918;BME280;4004;42.624;23.386;2022-07-22T09:16:39;94373.78;;;32.78;28.15
7918;BME280;4004;42.624;23.386;2022-07-22T09:19:08;94373.91;;;32.63;27.96
7918;BME280;4004;42.624;23.386;2022-07-22T09:21:35;94377.81;;;32.77;28.25
7918;BME280;4004;42.624;23.386;2022-07-22T09:24:03;94376.50;;;33.04;27.26
7918;BME280;4004;42.624;23.386;2022-07-22T09:26:32;94368.28;;;33.27;27.39
7918;BME280;4004;42.624;23.386;2022-07-22T09:28:59;94372.16;;;33.41;27.33
7918;BME280;4004;42.624;23.386;2022-07-22T09:31:26;94375.00;;;33.52;27.11
7918;BME280;4004;42.624;23.386;2022-07-22T09:33:55;94361.13;;;33.63;26.50
7918;BME280;4004;42.624;23.386;2022-07-22T09:36:23;94369.84;;;33.34;27.24
7918;BME280;4004;42.624;23.386;2022-07-22T09:38:50;94368.84;;;32.99;27.19
7918;BME280;4004;42.624;23.386;2022-07-22T09:41:17;94376.34;;;32.82;27.82
7918;BME280;4004;42.624;23.386;2022-07-22T09:43:44;94374.16;;;32.66;28.01
7918;BME280;4004;42.624;23.386;2022-07-22T09:46:11;94368.56;;;32.60;28.16
7918;BME280;4004;42.624;23.386;2022-07-22T09:48:39;94358.78;;;32.70;27.50
7918;BME280;4004;42.624;23.386;2022-07-22T09:51:06;94363.31;;;32.68;27.90
7918;BME280;4004;42.624;23.386;2022-07-22T09:53:34;94363.75;;;32.60;28.07
7918;BME280;4004;42.624;23.386;2022-07-22T09:56:03;94354.72;;;32.39;28.91
7918;BME280;4004;42.624;23.386;2022-07-22T09:58:31;94355.75;;;32.16;29.04
7918;BME280;4004;42.624;23.386;2022-07-22T10:00:59;94356.59;;;32.22;29.61
7918;BME280;4004;42.624;23.386;2022-07-22T10:03:30;94351.16;;;32.39;28.50
7918;BME280;4004;42.624;23.386;2022-07-22T10:05:57;94355.47;;;32.40;28.33
7918;BME280;4004;42.624;23.386;2022-07-22T10:08:25;94350.94;;;32.42;28.25
7918;BME280;4004;42.624;23.386;2022-07-22T10:10:59;94348.34;;;32.33;28.77
7918;BME280;4004;42.624;23.386;2022-07-22T10:13:26;94350.50;;;32.24;28.70
7918;BME280;4004;42.624;23.386;2022-07-22T10:15:55;94346.94;;;32.17;28.77
7918;BME280;4004;42.624;23.386;2022-07-22T10:18:22;94344.19;;;32.23;28.79
7918;BME280;4004;42.624;23.386;2022-07-22T10:21:00;94349.19;;;31.93;29.37
7918;BME280;4004;42.624;23.386;2022-07-22T10:23:27;94351.06;;;31.81;29.92
7918;BME280;4004;42.624;23.386;2022-07-22T10:25:56;94350.88;;;31.85;29.95
7918;BME280;4004;42.624;23.386;2022-07-22T10:28:26;94347.91;;;31.94;29.37
7918;BME280;4004;42.624;23.386;2022-07-22T10:30:54;94343.63;;;31.93;29.48
7918;BME280;4004;42.624;23.386;2022-07-22T10:33:40;94348.41;;;31.92;29.80
7918;BME280;4004;42.624;23.386;2022-07-22T10:36:07;94350.75;;;31.73;29.95
7918;BME280;4004;42.624;23.386;2022-07-22T10:38:34;94343.78;;;31.63;29.98
7918;BME280;4004;42.624;23.386;2022-07-22T10:41:03;94335.69;;;31.59;30.10
7918;BME280;4004;42.624;23.386;2022-07-22T10:43:45;94345.16;;;31.32;30.42
7918;BME280;4004;42.624;23.386;2022-07-22T10:46:13;94336.81;;;31.32;30.52
7918;BME280;4004;42.624;23.386;2022-07-22T10:48:46;94336.72;;;31.42;30.10
7918;BME280;4004;42.624;23.386;2022-07-22T10:51:14;94328.94;;;31.46;30.12
7918;BME280;4004;42.624;23.386;2022-07-22T10:53:44;94335.28;;;31.46;30.85
7918;BME280;4004;42.624;23.386;2022-07-22T10:56:22;94337.69;;;31.59;31.04
7918;BME280;4004;42.624;23.386;2022-07-22T10:58:58;94340.88;;;31.52;31.07
7918;BME280;4004;42.624;23.386;2022-07-22T11:01:28;94329.56;;;31.55;30.42
7918;BME280;4004;42.624;23.386;2022-07-22T11:03:56;94334.69;;;31.63;30.25
7918;BME280;4004;42.624;23.386;2022-07-22T11:06:33;94320.44;;;31.75;30.35
7918;BME280;4004;42.624;23.386;2022-07-22T11:09:01;94330.91;;;31.86;30.75
7918;BME280;4004;42.624;23.386;2022-07-22T11:11:40;94329.72;;;31.93;30.38
7918;BME280;4004;42.624;23.386;2022-07-22T11:14:18;94330.84;;;31.80;30.51
7918;BME280;4004;42.624;23.386;2022-07-22T11:16:47;94329.53;;;31.76;30.59
7918;BME280;4004;42.624;23.386;2022-07-22T11:19:14;94325.50;;;31.77;30.90
7918;BME280;4004;42.624;23.386;2022-07-22T11:21:41;94331.28;;;31.73;29.50
7918;BME280;4004;42.624;23.386;2022-07-22T11:24:08;94325.94;;;31.70;29.93
7918;BME280;4004;42.624;23.386;2022-07-22T11:26:42;94313.50;;;31.65;31.52
7918;BME280;4004;42.624;23.386;2022-07-22T11:29:10;94316.88;;;31.75;29.96
7918;BME280;4004;42.624;23.386;2022-07-22T11:31:41;94323.63;;;31.68;30.74
7918;BME280;4004;42.624;23.386;2022-07-22T11:34:10;94331.75;;;31.72;31.93
7918;BME280;4004;42.624;23.386;2022-07-22T11:36:38;94326.50;;;31.53;30.06
7918;BME280;4004;42.624;23.386;2022-07-22T11:39:05;94324.00;;;31.55;30.03
7918;BME280;4004;42.624;23.386;2022-07-22T11:41:32;94317.47;;;31.58;30.50
7918;BME280;4004;42.624;23.386;2022-07-22T11:44:01;94313.06;;;31.72;30.09
7918;BME280;4004;42.624;23.386;2022-07-22T11:46:35;94326.41;;;31.89;30.73
7918;BME280;4004;42.624;23.386;2022-07-22T11:49:01;94321.19;;;31.76;29.56
7918;BME280;4004;42.624;23.386;2022-07-22T11:51:29;94310.06;;;31.76;29.62
7918;BME280;4004;42.624;23.386;2022-07-22T11:53:57;94314.00;;;31.90;29.93
7918;BME280;4004;42.624;23.386;2022-07-22T11:56:24;94311.50;;;31.92;29.17
7918;BME280;4004;42.624;23.386;2022-07-22T11:58:51;94323.38;;;31.92;29.78
7918;BME280;4004;42.624;23.386;2022-07-22T12:01:23;94310.41;;;31.84;28.97
7918;BME280;4004;42.624;23.386;2022-07-22T12:03:52;94305.13;;;31.86;29.64
7918;BME280;4004;42.624;23.386;2022-07-22T12:06:20;94319.00;;;31.86;29.60
7918;BME280;4004;42.624;23.386;2022-07-22T12:08:50;94321.09;;;31.91;29.54
7918;BME280;4004;42.624;23.386;2022-07-22T12:11:18;94319.56;;;31.90;29.69
7918;BME280;4004;42.624;23.386;2022-07-22T12:13:48;94304.19;;;31.94;30.08
7918;BME280;4004;42.624;23.386;2022-07-22T12:16:22;94299.63;;;31.91;29.57
7918;BME280;4004;42.624;23.386;2022-07-22T12:18:55;94299.28;;;31.84;29.34
7918;BME280;4004;42.624;23.386;2022-07-22T12:21:23;94300.09;;;31.90;29.32
7918;BME280;4004;42.624;23.386;2022-07-22T12:23:52;94294.34;;;31.93;29.03
7918;BME280;4004;42.624;23.386;2022-07-22T12:26:19;94292.59;;;31.96;28.36
7918;BME280;4004;42.624;23.386;2022-07-22T12:28:46;94303.72;;;31.96;29.05
7918;BME280;4004;42.624;23.386;2022-07-22T12:31:12;94302.16;;;31.95;28.73
7918;BME280;4004;42.624;23.386;2022-07-22T12:33:48;94303.63;;;31.90;28.48
7918;BME280;4004;42.624;23.386;2022-07-22T12:36:15;94307.22;;;31.91;29.20
7918;BME280;4004;42.624;23.386;2022-07-22T12:38:42;94300.38;;;31.92;28.51
7918;BME280;4004;42.624;23.386;2022-07-22T12:41:24;94294.53;;;31.90;28.62
7918;BME280;4004;42.624;23.386;2022-07-22T12:43:52;94293.59;;;31.93;28.81
7918;BME280;4004;42.624;23.386;2022-07-22T12:46:18;94293.31;;;31.91;28.63
7918;BME280;4004;42.624;23.386;2022-07-22T12:48:52;94296.56;;;31.89;28.15
7918;BME280;4004;42.624;23.386;2022-07-22T12:51:19;94298.88;;;31.91;28.29
7918;BME280;4004;42.624;23.386;2022-07-22T12:53:45;94304.19;;;31.94;28.54
7918;BME280;4004;42.624;23.386;2022-07-22T12:56:12;94296.59;;;31.95;28.03
7918;BME280;4004;42.624;23.386;2022-07-22T12:58:39;94294.13;;;31.97;27.49
7918;BME280;4004;42.624;23.386;2022-07-22T13:01:07;94299.47;;;32.00;26.74
7918;BME280;4004;42.624;23.386;2022-07-22T13:03:34;94296.78;;;31.86;27.62
7918;BME280;4004;42.624;23.386;2022-07-22T13:06:04;94310.13;;;31.81;27.36
7918;BME280;4004;42.624;23.386;2022-07-22T13:08:32;94293.94;;;31.80;27.66
7918;BME280;4004;42.624;23.386;2022-07-22T13:10:59;94294.16;;;31.76;27.34
7918;BME280;4004;42.624;23.386;2022-07-22T13:13:26;94293.19;;;31.79;27.83